地図

経路データ

SID SEASON NUMBER BASIN SUBBASIN NAME ISO_TIME NATURE LAT LON WMO_WIND WMO_PRES WMO_AGENCY TRACK_TYPE DIST2LAND LANDFALL IFLAG USA_AGENCY USA_ATCF_ID USA_LAT USA_LON USA_RECORD USA_STATUS USA_WIND USA_PRES USA_SSHS USA_R34_NE USA_R34_SE USA_R34_SW USA_R34_NW USA_R50_NE USA_R50_SE USA_R50_SW USA_R50_NW USA_R64_NE USA_R64_SE USA_R64_SW USA_R64_NW USA_POCI USA_ROCI USA_RMW USA_EYE TOKYO_LAT TOKYO_LON TOKYO_GRADE TOKYO_WIND TOKYO_PRES TOKYO_R50_DIR TOKYO_R50_LONG TOKYO_R50_SHORT TOKYO_R30_DIR TOKYO_R30_LONG TOKYO_R30_SHORT TOKYO_LAND CMA_LAT CMA_LON CMA_CAT CMA_WIND CMA_PRES HKO_LAT HKO_LON HKO_CAT HKO_WIND HKO_PRES NEWDELHI_LAT NEWDELHI_LON NEWDELHI_GRADE NEWDELHI_WIND NEWDELHI_PRES NEWDELHI_CI NEWDELHI_DP NEWDELHI_POCI REUNION_LAT REUNION_LON REUNION_TYPE REUNION_WIND REUNION_PRES REUNION_TNUM REUNION_CI REUNION_RMW REUNION_R34_NE REUNION_R34_SE REUNION_R34_SW REUNION_R34_NW REUNION_R50_NE REUNION_R50_SE REUNION_R50_SW REUNION_R50_NW REUNION_R64_NE REUNION_R64_SE REUNION_R64_SW REUNION_R64_NW BOM_LAT BOM_LON BOM_TYPE BOM_WIND BOM_PRES BOM_TNUM BOM_CI BOM_RMW BOM_R34_NE BOM_R34_SE BOM_R34_SW BOM_R34_NW BOM_R50_NE BOM_R50_SE BOM_R50_SW BOM_R50_NW BOM_R64_NE BOM_R64_SE BOM_R64_SW BOM_R64_NW BOM_ROCI BOM_POCI BOM_EYE BOM_POS_METHOD BOM_PRES_METHOD NADI_LAT NADI_LON NADI_CAT NADI_WIND NADI_PRES WELLINGTON_LAT WELLINGTON_LON WELLINGTON_WIND WELLINGTON_PRES DS824_LAT DS824_LON DS824_STAGE DS824_WIND DS824_PRES TD9636_LAT TD9636_LON TD9636_STAGE TD9636_WIND TD9636_PRES TD9635_LAT TD9635_LON TD9635_WIND TD9635_PRES TD9635_ROCI NEUMANN_LAT NEUMANN_LON NEUMANN_CLASS NEUMANN_WIND NEUMANN_PRES MLC_LAT MLC_LON MLC_CLASS MLC_WIND MLC_PRES USA_GUST BOM_GUST BOM_GUST_PER REUNION_GUST REUNION_GUST_PER USA_SEAHGT USA_SEARAD_NE USA_SEARAD_SE USA_SEARAD_SW USA_SEARAD_NW STORM_SPEED STORM_DIR
2003035S10099 2003 10 SI WA ISHA 2003-02-03 18:00:00 TS -9.80000 99.2000 main 720 720 O___________O_ jtwc_sh SH182003 -9.80000 99.2000 TD 15 1006 -1 -9.80000 99.2000 TC 15 4 206
2003035S10099 2003 10 SI WA ISHA 2003-02-03 21:00:00 TS -9.99501 99.1050 main 744 744 P___________P_ SH182003 -9.99501 99.1050 TD 15 1006 -1 -9.99501 99.1050 TC 15 4 206
2003035S10099 2003 10 SI WA ISHA 2003-02-04 00:00:00 TS -10.2000 99.0000 main 768 768 O___________O_ jtwc_sh SH182003 -10.2000 99.0000 TD 15 1006 -1 -10.2000 99.0000 TC 15 5 209
2003035S10099 2003 10 SI WA ISHA 2003-02-04 03:00:00 TS -10.4150 98.8725 main 793 793 P___________P_ SH182003 -10.4150 98.8725 TD 20 1004 -1 -10.4150 98.8725 TC 20 5 216
2003035S10099 2003 10 SI WA ISHA 2003-02-04 06:00:00 TS -10.6000 98.7000 main 824 824 O___________O_ jtwc_sh SH182003 -10.6000 98.7000 TD 25 1002 -1 1008 105 100 -10.6000 98.7000 TC 25 5 232
2003035S10099 2003 10 SI WA ISHA 2003-02-04 09:00:00 TS -10.7225 98.4650 main 846 846 P___________P_ SH182003 -10.7225 98.4650 TD 25 1002 -1 1008 105 100 -10.7225 98.4650 TC 25 5 248
2003035S10099 2003 10 SI WA ISHA 2003-02-04 12:00:00 TS -10.8000 98.2000 main 875 875 O___________O_ jtwc_sh SH182003 -10.8000 98.2000 TD 25 1002 -1 1008 105 100 -10.8000 98.2000 TC 25 5 255
2003035S10099 2003 10 SI WA ISHA 2003-02-04 15:00:00 TS -10.8575 97.9500 main 904 904 P___________P_ SH182003 -10.8575 97.9500 TD 25 1002 -1 1007 112 90 -10.8575 97.9500 TC 25 5 258
2003035S10099 2003 10 SI WA ISHA 2003-02-04 18:00:00 TS -10.9000 97.7000 main 917 917 O___________O_ jtwc_sh SH182003 -10.9000 97.7000 TD 25 1002 -1 1007 120 80 -10.9000 97.7000 TC 25 5 259
2003035S10099 2003 10 SI WA ISHA 2003-02-04 21:00:00 TS -10.9500 97.4500 main 931 931 P___________P_ SH182003 -10.9500 97.4500 TD 25 1002 -1 1007 120 80 -10.9500 97.4500 TC 25 5 258
2003035S10099 2003 10 SI WA ISHA 2003-02-05 00:00:00 TS -11.0000 97.2000 main 961 961 O___________O_ jtwc_sh SH182003 -11.0000 97.2000 TD 25 1002 -1 1007 120 80 -11.0000 97.2000 TC 25 5 258
2003035S10099 2003 10 SI WA ISHA 2003-02-05 03:00:00 TS -11.0575 96.9500 main 984 984 P___________P_ SH182003 -11.0575 96.9500 TD 25 1002 -1 1007 110 80 -11.0575 96.9500 TC 25 5 258
2003035S10099 2003 10 SI WA ISHA 2003-02-05 06:00:00 TS -11.1000 96.7000 main 1006 1006 O___________O_ jtwc_sh SH182003 -11.1000 96.7000 TD 25 1002 -1 1007 100 80 -11.1000 96.7000 TC 25 5 265
2003035S10099 2003 10 SI WA ISHA 2003-02-05 09:00:00 TS -11.1000 96.4500 main 1027 1027 P___________P_ SH182003 -11.1000 96.4500 TD 25 1002 -1 1006 100 80 -11.1000 96.4500 TC 25 5 270
2003035S10099 2003 10 SI WA ISHA 2003-02-05 12:00:00 TS -11.1000 96.2000 main 1041 1041 O___________O_ jtwc_sh SH182003 -11.1000 96.2000 TD 25 1002 -1 1006 100 80 -11.1000 96.2000 TC 25 5 264
2003035S10099 2003 10 SI WA ISHA 2003-02-05 15:00:00 TS -11.1499 95.9650 main 1056 1056 P___________P_ SH182003 -11.1499 95.9650 TD 25 1002 -1 -11.1499 95.9650 TC 25 5 258
2003035S10099 2003 10 SI WA ISHA 2003-02-05 18:00:00 TS -11.2000 95.7000 main 1086 1086 O___________O_ jtwc_sh SH182003 -11.2000 95.7000 TD 25 1002 -1 -11.2000 95.7000 TC 25 6 263
2003035S10099 2003 10 SI WA ISHA 2003-02-05 21:00:00 TS -11.2149 95.3875 main 1108 1108 P___________P_ SH182003 -11.2149 95.3875 TD 25 1002 -1 -11.2149 95.3875 TC 25 7 270
2003035S10099 2003 10 SI WA ISHA 2003-02-06 00:00:00 TS -11.2000 95.0000 main 1139 1139 O___________O_ jtwc_sh SH182003 -11.2000 95.0000 TD 25 1002 -1 1006 90 80 -11.2000 95.0000 TC 25 9 272
2003035S10099 2003 10 SI WA ISHA 2003-02-06 03:00:00 TS -11.1800 94.5226 main 1169 1169 P___________P_ SH182003 -11.1800 94.5226 TD 25 1002 -1 1006 105 95 -11.1800 94.5226 TC 25 10 276
2003035S10099 2003 10 SI WA ISHA 2003-02-06 06:00:00 TS -11.1000 94.0000 main 1184 1184 O___________O_ jtwc_sh SH182003 -11.1000 94.0000 TD 25 1002 -1 1006 120 110 -11.1000 94.0000 TC 25 11 284
2003035S10099 2003 10 SI WA ISHA 2003-02-06 09:00:00 TS -10.9300 93.4850 main 1191 1191 P___________P_ SH182003 -10.9300 93.4850 TD 25 1002 -1 1006 120 110 -10.9300 93.4850 TC 25 11 292
2003035S10099 2003 10 SI WA ISHA 2003-02-06 12:00:00 TS -10.7000 93.0000 main 1200 1197 O___________O_ jtwc_sh SH182003 -10.7000 93.0000 TD 25 1002 -1 1006 120 110 -10.7000 93.0000 TC 25 10 298
2003035S10099 2003 10 SI WA ISHA 2003-02-06 15:00:00 TS -10.4575 92.5625 main 1207 1199 P___________P_ SH182003 -10.4575 92.5625 TD 25 1002 -1 -10.4575 92.5625 TC 25 9 302
2003035S10099 2003 10 SI WA ISHA 2003-02-06 18:00:00 TS -10.2000 92.2000 main 1206 1201 O___________O_ jtwc_sh SH182003 -10.2000 92.2000 TD 25 1002 -1 -10.2000 92.2000 TC 25 8 310
2003035S10099 2003 10 SI WA ISHA 2003-02-06 21:00:00 TS -9.91994 91.9200 main 1201 1191 P___________P_ SH182003 -9.91994 91.9200 TD 25 1002 -1 -9.91994 91.9200 TC 25 7 315
2003035S10099 2003 10 SI WA ISHA 2003-02-07 00:00:00 TS -9.70000 91.7000 main 1199 1198 O___________O_ jtwc_sh SH182003 -9.70000 91.7000 TD 25 1002 -1 -9.70000 91.7000 TC 25 5 304
2003035S10099 2003 10 SI WA ISHA 2003-02-07 03:00:00 TS -9.62749 91.4851 main 1205 1205 P___________P_ SH182003 -9.62749 91.4851 TD 25 1002 -1 -9.62749 91.4851 TC 25 4 284
2003035S10099 2003 10 SI WA ISHA 2003-02-07 06:00:00 TS -9.60000 91.3000 main 1221 1220 O___________O_ jtwc_sh SH182003 -9.60000 91.3000 TD 25 1002 -1 -9.60000 91.3000 TC 25 4 293
2003035S10099 2003 10 SI WA ISHA 2003-02-07 09:00:00 TS -9.49246 91.1575 main 1220 1220 P___________P_ SH182003 -9.49246 91.1575 TD 25 1002 -1 -9.49246 91.1575 TC 25 4 304
2003035S10099 2003 10 SI WA ISHA 2003-02-07 12:00:00 TS -9.40000 91.0000 main 1228 1228 O___________O_ jtwc_sh SH182003 -9.40000 91.0000 TD 25 1002 -1 -9.40000 91.0000 TC 25 4 286
2003035S10099 2003 10 SI WA ISHA 2003-02-07 15:00:00 TS -9.38501 90.7650 main 1244 1244 P___________P_ SH182003 -9.38501 90.7650 TD 25 1002 -1 -9.38501 90.7650 TC 25 5 270
2003035S10099 2003 10 SI WA ISHA 2003-02-07 18:00:00 TS -9.40000 90.5000 main 1268 1268 O___________O_ jtwc_sh SH182003 -9.40000 90.5000 TD 25 1002 -1 -9.40000 90.5000 TC 25 5 269
2003035S10099 2003 10 SI WA ISHA 2003-02-07 21:00:00 TS -9.39240 90.2800 main 1284 1284 P___________P_ SH182003 -9.39240 90.2800 TD 25 1002 -1 -9.39240 90.2800 TC 25 5 270
2003035S10099 2003 10 SI WA ISHA 2003-02-08 00:00:00 TS -9.40000 90.0000 main 1309 1309 O___________O_ jtwc_sh SH182003 -9.40000 90.0000 TD 25 1002 -1 -9.40000 90.0000 TC 25 7 266
2003035S10099 2003 10 SI MM ISHA 2003-02-08 03:00:00 TS -9.44254 89.5800 main 1343 1343 P___________P_ SH182003 -9.44254 89.5800 TD 25 1002 -1 -9.44254 89.5800 TC 25 9 264
2003035S10099 2003 10 SI MM ISHA 2003-02-08 06:00:00 TS -9.50000 89.1000 main 1392 1392 O___________O_ jtwc_sh SH182003 -9.50000 89.1000 TD 25 1002 -1 -9.50000 89.1000 TC 25 9 263
2003035S10099 2003 10 SI MM ISHA 2003-02-08 09:00:00 TS -9.54994 88.6500 main 1427 1436 P___________P_ SH182003 -9.54994 88.6500 TD 25 1002 -1 -9.54994 88.6500 TC 25 9 264
2003035S10099 2003 10 SI MM ISHA 2003-02-08 12:00:00 TS -9.60000 88.2000 main 1478 1478 O___________O_ jtwc_sh SH182003 -9.60000 88.2000 TD 25 1002 -1 -9.60000 88.2000 TC 25 9 264
2003035S10099 2003 10 SI MM ISHA 2003-02-08 15:00:00 TS -9.64250 87.7350 main 1523 1523 P___________P_ SH182003 -9.64250 87.7350 TD 25 1002 -1 -9.64250 87.7350 TC 25 9 264
2003035S10099 2003 10 SI MM ISHA 2003-02-08 18:00:00 TS -9.70000 87.3000 main 1565 1565 O___________O_ jtwc_sh SH182003 -9.70000 87.3000 TD 25 1002 -1 -9.70000 87.3000 TC 25 8 259
2003035S10099 2003 10 SI MM ISHA 2003-02-08 21:00:00 TS -9.79241 86.9350 main 1608 1608 P___________P_ SH182003 -9.79241 86.9350 TD 25 1002 -1 -9.79241 86.9350 TC 25 7 254
2003035S10099 2003 10 SI MM ISHA 2003-02-09 00:00:00 TS -9.90000 86.6000 main 1641 1641 O___________O_ jtwc_sh SH182003 -9.90000 86.6000 TD 25 1002 -1 -9.90000 86.6000 TC 25 7 254
2003035S10099 2003 10 SI MM ISHA 2003-02-09 03:00:00 TS -9.98499 86.2424 main 1684 1684 P___________P_ SH182003 -9.98499 86.2424 TD 25 1002 -1 -9.98499 86.2424 TC 25 7 254
2003035S10099 2003 10 SI MM ISHA 2003-02-09 06:00:00 TS -10.1000 85.9000 main 1718 1718 O___________O_ jtwc_sh SH182003 -10.1000 85.9000 TD 25 1002 -1 -10.1000 85.9000 TC 25 7 244
2003035S10099 2003 10 SI MM ISHA 2003-02-09 09:00:00 TS -10.2925 85.5925 main 1758 1758 P___________P_ SH182003 -10.2925 85.5925 TD 25 1002 -1 -10.2925 85.5925 TC 25 7 240
2003035S10099 2003 10 SI MM ISHA 2003-02-09 12:00:00 TS -10.4667 85.2444 25 1003 reunion main 1807 1807 O____O______O_ jtwc_sh SH182003 -10.5000 85.3000 TD 25 1002 -1 -10.2000 84.8000 2 25 1003 1.50000 1.50000 -10.5000 85.3000 TC 25 8 244
2003035S10099 2003 10 SI MM ISHA 2003-02-09 15:00:00 TS -10.6255 84.8955 main 1841 1841 P____P______P_ SH182003 -10.6574 85.0074 TD 25 1002 -1 -10.4976 84.4477 2 25 1003 -10.6574 85.0074 TC 25 8 244
2003035S10099 2003 10 SI MM ISHA 2003-02-09 18:00:00 TS -10.8000 84.5364 25 1003 reunion main 1890 1890 O____O______O_ jtwc_sh SH182003 -10.8000 84.7000 TD 25 1002 -1 -10.8000 84.1000 2 25 1003 1.50000 1.50000 -10.8000 84.7000 TC 25 8 243
2003035S10099 2003 10 SI MM ISHA 2003-02-09 21:00:00 TS -10.9966 84.1674 main 1929 1929 P____P______P_ SH182003 -10.9349 84.3724 TD 25 1002 -1 -11.1199 83.7573 2 25 1002 -10.9349 84.3724 TC 25 8 239
2003035S10099 2003 10 SI MM ISHA 2003-02-10 00:00:00 TS -11.2333 83.8000 25 1002 reunion main 1948 1948 O____O______O_ jtwc_sh SH182003 -11.1000 84.0000 TD 25 1002 -1 -11.5000 83.4000 2 25 1002 1.50000 1.50000 -11.1000 84.0000 TC 25 10 235
2003035S10099 2003 10 SI MM ISHA 2003-02-10 03:00:00 TS -11.5467 83.3592 main 1974 1974 P____P______P_ SH182003 -11.3201 83.5500 TD 25 1002 -1 -12.0001 82.9777 2 25 1002 -11.3201 83.5500 TC 25 11 232
2003035S10099 2003 10 SI MM ISHA 2003-02-10 06:00:00 TS -11.9000 82.9333 25 1002 reunion main 2010 2010 O____O______O_ jtwc_sh SH182003 -11.6000 83.1000 TD 25 1002 -1 -12.5000 82.6000 2 25 1002 1.50000 1.50000 -11.6000 83.1000 TC 25 10 227
2003035S10099 2003 10 SI MM ISHA 2003-02-10 09:00:00 TS -12.2449 82.6057 main 2040 2040 P____P______P_ SH182003 -11.9274 82.7274 TD 25 1002 -1 -12.8799 82.3623 2 25 1001 -11.9274 82.7274 TC 25 9 220
2003035S10099 2003 10 SI MM ISHA 2003-02-10 12:00:00 TS -12.6000 82.3333 25 1001 reunion main 2081 2081 O____O______O_ jtwc_sh SH182003 -12.3000 82.4000 TD 25 1002 -1 1006 110 100 -13.2000 82.2000 2 25 1001 2.00000 2.00000 -12.3000 82.4000 TC 25 9 216
2003035S10099 2003 10 SI MM ISHA 2003-02-10 15:00:00 TS -12.9591 82.0732 main 2124 2123 P____P______P_ SH182003 -12.6849 82.0924 TD 27 1001 -1 1006 110 100 -13.5075 82.0350 2 26 1000 -12.6849 82.0924 TC 27 9 214
2003035S10099 2003 10 SI MM ISHA 2003-02-10 18:00:00 TS -13.3333 81.8333 27 999 reunion main 2155 2155 O____O______O_ jtwc_sh SH182003 -13.1000 81.8000 TD 30 1000 -1 1006 110 100 -13.8000 81.9000 2 27 999 2.00000 2.00000 -13.1000 81.8000 TC 30 9 213
2003035S10099 2003 10 SI MM ISHA 2003-02-10 21:00:00 TS -13.7284 81.5676 main 2198 2198 P____P______P_ SH182003 -13.5426 81.4552 TD 30 1000 -1 1006 110 100 -14.1000 81.7924 2 28 997 -13.5426 81.4552 TC 30 9 210
2003035S10099 2003 10 SI MM ISHA 2003-02-11 00:00:00 TS -14.1333 81.3667 30 996 reunion main 2242 2242 O____O______O_ jtwc_sh SH182003 -14.0000 81.2000 TD 30 1000 -1 1006 110 100 -14.4000 81.7000 2 30 996 2.50000 2.50000 -14.0000 81.2000 TC 30 9 199
2003035S10099 2003 10 SI MM ISHA 2003-02-11 03:00:00 TS -14.5533 81.2783 main 2297 2297 P____P______P_ SH182003 -14.4724 81.1249 TD 30 1000 -1 1006 110 100 -14.7150 81.5850 2 30 996 -14.4724 81.1249 TC 30 8 185
2003035S10099 2003 10 SI MM ISHA 2003-02-11 06:00:00 TS -14.9333 81.3000 30 996 reunion main 2331 2331 O____O______O_ jtwc_sh SH182003 -14.9000 81.2000 TD 30 1000 -1 1006 110 100 -15.0000 81.5000 2 30 996 2.00000 2.50000 -14.9000 81.2000 TC 30 7 171
2003035S10099 2003 10 SI MM ISHA 2003-02-11 09:00:00 TS -15.2225 81.3834 main 2365 2365 P____P______P_ SH182003 -15.2300 81.3625 TD 30 1000 -1 1006 110 100 -15.2074 81.4251 2 30 996 -15.2300 81.3625 TC 30 6 154
2003035S10099 2003 10 SI MM ISHA 2003-02-11 12:00:00 TS -15.4667 81.5667 30 997 reunion main 2399 2399 O____O______O_ jtwc_sh SH182003 -15.5000 81.6000 TD 30 1000 -1 1006 110 100 -15.4000 81.5000 2 30 997 2.00000 2.50000 -15.5000 81.6000 TC 30 7 138
2003035S10099 2003 10 SI MM ISHA 2003-02-11 15:00:00 TS -15.7318 81.8516 main 2423 2423 P____P______P_ SH182003 -15.7650 81.8351 TD 32 998 -1 1006 110 100 -15.6653 81.8846 2 30 997 -15.7650 81.8351 TC 32 8 131
2003035S10099 2003 10 SI MM ISHA 2003-02-11 18:00:00 TS -15.9667 82.1667 30 998 reunion main 2432 2423 O____O______O_ jtwc_sh SH182003 -16.0000 82.1000 TS 35 997 0 1006 110 100 -15.9000 82.3000 2 30 998 2.00000 2.50000 -16.0000 82.1000 TC 35 7 128
2003035S10099 2003 10 SI MM ISHA 2003-02-11 21:00:00 TS -16.1508 82.4126 main 2430 2421 P____P______P_ SH182003 -16.2150 82.4000 TS 37 995 0 1006 77 65 -16.0224 82.4377 2 30 998 -16.2150 82.4000 TC 37 6 127
2003035S10099 2003 10 SI MM ISHA 2003-02-12 00:00:00 TS -16.3000 82.6333 30 998 reunion main 2421 2413 O____O______O_ jtwc_sh SH182003 -16.4000 82.7000 TS 40 994 0 30 30 30 30 1006 45 30 -16.1000 82.5000 2 30 998 2.00000 2.50000 -16.4000 82.7000 TC 40 5 123
2003035S10099 2003 10 SI MM ISHA 2003-02-12 03:00:00 TS -16.4208 82.8526 main 2405 2404 P____P______P_ SH182003 -16.5500 82.9651 TS 40 994 0 30 30 30 30 1006 45 30 -16.1625 82.6277 2 30 998 -16.5500 82.9651 TC 40 5 123
2003035S10099 2003 10 SI MM ISHA 2003-02-12 06:00:00 TS -16.5667 83.0667 30 998 reunion main 2404 2396 O____O______O_ jtwc_sh SH182003 -16.7000 83.2000 TS 40 994 0 30 30 30 30 1006 45 30 -16.3000 82.8000 2 30 998 2.00000 2.50000 -16.7000 83.2000 TC 40 6 133
2003035S10099 2003 10 SI MM ISHA 2003-02-12 09:00:00 TS -16.8016 83.2833 main 2403 2403 P____P______P_ SH182003 -16.8925 83.4075 TS 40 994 0 30 30 30 30 1006 45 30 -16.6200 83.0349 2 30 997 -16.8925 83.4075 TC 40 7 140
2003035S10099 2003 10 SI MM ISHA 2003-02-12 12:00:00 TS -17.0667 83.5000 30 997 reunion main 2411 2403 O____O______O_ jtwc_sh SH182003 -17.1000 83.6000 TS 40 994 0 30 30 30 30 1006 45 30 -17.0000 83.3000 2 30 997 2.50000 2.50000 -17.1000 83.6000 TC 40 6 140
2003035S10099 2003 10 SI MM ISHA 2003-02-12 15:00:00 TS -17.2900 83.7143 main 2411 2404 P____P______P_ SH182003 -17.2850 83.8001 TS 40 994 0 30 30 30 30 1006 77 30 -17.2999 83.5427 2 32 996 -17.2850 83.8001 TC 40 6 139
2003035S10099 2003 10 SI MM ISHA 2003-02-12 18:00:00 TS -17.5333 83.9333 35 995 reunion main 2412 2412 O____O______O_ jtwc_sh SH182003 -17.5000 84.0000 TS 40 994 0 30 30 30 30 1006 110 30 -17.6000 83.8000 3 35 995 2.50000 2.50000 -17.5000 84.0000 TC 40 7 141
2003035S10099 2003 10 SI MM ISHA 2003-02-12 21:00:00 TS -17.8175 84.1593 main 2414 2414 P____P______P_ SH182003 -17.7550 84.1927 TS 42 992 0 35 35 40 40 1006 92 30 -17.9425 84.0925 3 35 995 -17.7550 84.1927 TC 42 8 145
2003035S10099 2003 10 SI MM ISHA 2003-02-13 00:00:00 TS -18.1667 84.4000 35 995 reunion main 2433 2433 O____O______O_ jtwc_sh SH182003 -18.1000 84.4000 TS 45 991 0 40 40 50 50 1006 75 30 -18.3000 84.4000 3 35 995 2.50000 2.50000 -18.1000 84.4000 TC 45 9 149
2003035S10099 2003 10 SI MM ISHA 2003-02-13 03:00:00 TS -18.6017 84.6642 main 2445 2445 P____P______P_ SH182003 -18.5775 84.6424 TS 45 991 0 40 50 45 45 1006 92 30 -18.6500 84.7076 3 35 995 -18.5775 84.6424 TC 45 10 151
2003035S10099 2003 10 SI MM ISHA 2003-02-13 06:00:00 TS -19.0667 84.9333 35 995 reunion main 2474 2468 O____O______O_ jtwc_sh SH182003 -19.1000 84.9000 TS 45 991 0 40 60 40 40 1006 110 30 -19.0000 85.0000 3 35 995 2.50000 2.50000 -19.1000 84.9000 TC 45 10 150
2003035S10099 2003 10 SI MM ISHA 2003-02-13 09:00:00 TS -19.4984 85.2083 main 2489 2489 P____P______P_ SH182003 -19.5725 85.1799 TS 45 991 0 40 60 40 40 1006 110 30 -19.3500 85.2651 3 35 995 -19.5725 85.1799 TC 45 10 150
2003035S10099 2003 10 SI MM ISHA 2003-02-13 12:00:00 TS -19.9000 85.4333 35 995 reunion main 2512 2505 O____O______O_ jtwc_sh SH182003 -20.0000 85.4000 TS 45 991 0 40 60 40 40 1006 110 30 -19.7000 85.5000 3 35 995 2.00000 2.50000 -20.0000 85.4000 TC 45 9 156
2003035S10099 2003 10 SI MM ISHA 2003-02-13 15:00:00 TS -20.2799 85.5735 main 2535 2535 P____P______P_ SH182003 -20.3949 85.5101 TS 42 992 0 60 80 60 60 1006 110 30 -20.0499 85.7002 3 34 995 -20.3949 85.5101 TC 42 7 165
2003035S10099 2003 10 SI MM ISHA 2003-02-13 18:00:00 TS -20.6000 85.6333 33 996 reunion main 2562 2562 O____O______O_ jtwc_sh SH182003 -20.7000 85.5000 TS 40 994 0 80 100 80 80 1006 110 30 -20.4000 85.9000 2 33 996 2.00000 2.50000 -20.7000 85.5000 TC 40 6 173
2003035S10099 2003 10 SI MM ISHA 2003-02-13 21:00:00 TS -20.8791 85.6569 main 2583 2583 P____P______P_ SH182003 -20.9399 85.4103 TS 37 995 0 -20.7575 86.1500 2 31 997 -20.9399 85.4103 TC 37 4 185
2003035S10099 2003 10 SI MM ISHA 2003-02-14 00:00:00 TS -21.0333 85.6000 30 998 reunion main 2598 2598 O____O______O_ jtwc_sh SH182003 -21.0000 85.2000 TS 35 997 0 -21.1000 86.4000 2 30 998 2.00000 2.50000 -21.0000 85.2000 TC 35 3 249
2003035S10099 2003 10 SI MM ISHA 2003-02-14 03:00:00 TS -20.9818 85.3729 main 2610 2610 P____P______P_ SH182003 -20.7727 84.7592 TS 35 997 0 -21.3999 86.6003 2 27 999 -20.7727 84.7592 TC 35 2 288
2003035S10099 2003 10 SI MM ISHA 2003-02-14 06:00:00 TS -20.9800 85.4200 25 1000 reunion main 2610 2595 O____O______O_ jtwc_sh SH182003 -20.5000 84.5000 TS 35 997 0 -21.7000 86.8000 2 25 1000 1.50000 2.00000 -20.5000 84.5000 TC 35 6 116
2003035S10099 2003 10 SI MM ISHA 2003-02-14 09:00:00 TS -21.2328 85.9151 main 2599 2594 P____P______P_ SH182003 -20.4306 84.7802 TS 35 997 0 -22.0350 87.0500 2 25 1000 -20.4306 84.7802 TC 35 14 124
2003035S10099 2003 10 SI MM ISHA 2003-02-14 12:00:00 TS -21.7667 86.6667 25 1000 reunion main 2601 2596 O____O______O_ jtwc_sh SH182003 -20.5000 85.4000 TS 35 997 0 -22.4000 87.3000 2 25 1000 1.50000 2.00000 -20.5000 85.4000 TC 35 21 137
2003035S10099 2003 10 SI MM ISHA 2003-02-14 15:00:00 TS -22.7924 87.4928 main 2607 2601 _____P________ SH182003 TS -1 -22.7924 87.4928 2 25 1000 TC 17 146
2003035S10099 2003 10 SI MM ISHA 2003-02-14 18:00:00 TS -23.2000 87.7000 25 1000 reunion main 2601 2572 _____O________ -23.2000 87.7000 2 25 1000 2.00000 2.00000 9 152
2003035S10099 2003 10 SI MM ISHA 2003-02-14 21:00:00 TS -23.6149 87.9626 main 2562 2523 _____P________ -23.6149 87.9626 2 25 1000 10 145
2003035S10099 2003 10 SI MM ISHA 2003-02-15 00:00:00 TS -24.0000 88.3000 25 1000 reunion main 2523 2477 _____O________ -24.0000 88.3000 2 25 1000 2.00000 2.00000 10 135
2003035S10099 2003 10 SI MM ISHA 2003-02-15 03:00:00 TS -24.3204 88.7246 main 2477 2421 _____P________ -24.3204 88.7246 2 25 1001 10 126
2003035S10099 2003 10 SI MM ISHA 2003-02-15 06:00:00 TS -24.6000 89.2000 25 1002 reunion main 2421 _____O________ -24.6000 89.2000 6 25 1002 1.50000 2.00000 10 123

IBTrACS Databaseについて

本データベースは、米国NOAAが公開する1842年以降の世界の熱帯低気圧のベストトラックデータアーカイブInternational Best Track Archive for Climate Stewardship (IBTrACS)を、ウェブで閲覧しやすい形式に変換したものです。

最終更新日:2021-10-25